createdAt,value
2019-02-17T00:00:24.374Z,6.60
2019-02-17T00:01:24.353Z,6.10
2019-02-17T00:02:24.343Z,6.20
2019-02-17T00:03:24.358Z,5.90
2019-02-17T00:04:24.327Z,6.30
2019-02-17T00:05:24.318Z,6.30
2019-02-17T00:06:24.317Z,6.40
2019-02-17T00:07:24.288Z,6.20
2019-02-17T00:08:24.307Z,6.30
2019-02-17T00:09:24.270Z,6.20
2019-02-17T00:10:24.262Z,6.40
2019-02-17T00:11:24.256Z,6.30
2019-02-17T00:12:24.236Z,6.20
2019-02-17T00:13:24.251Z,6.30
2019-02-17T00:14:24.226Z,6.00
2019-02-17T00:15:24.210Z,6.10
2019-02-17T00:16:24.207Z,5.90
2019-02-17T00:17:24.181Z,5.40
2019-02-17T00:18:24.193Z,6.60
2019-02-17T00:19:24.171Z,6.40
2019-02-17T00:20:24.174Z,6.10
2019-02-17T00:21:24.147Z,6.20
2019-02-17T00:22:24.215Z,6.20
2019-02-17T00:23:24.127Z,6.20
2019-02-17T00:24:24.105Z,6.20
2019-02-17T00:25:24.194Z,5.90
2019-02-17T00:26:24.103Z,6.40
2019-02-17T00:27:24.093Z,6.50
2019-02-17T00:28:24.100Z,6.70
2019-02-17T00:29:24.065Z,6.10
2019-02-17T00:30:24.046Z,6.60
2019-02-17T00:31:24.042Z,6.20
2019-02-17T00:32:24.031Z,6.10
2019-02-17T00:33:24.029Z,6.10
2019-02-17T00:34:24.002Z,6.80
2019-02-17T00:35:23.990Z,6.40
2019-02-17T00:36:23.984Z,5.80
2019-02-17T00:37:24.000Z,6.40
2019-02-17T00:38:23.969Z,6.70
2019-02-17T00:39:23.950Z,5.80
2019-02-17T00:40:23.950Z,6.40
2019-02-17T00:41:23.932Z,6.50
2019-02-17T00:42:23.916Z,5.90
2019-02-17T00:43:23.899Z,6.30
2019-02-17T00:44:23.917Z,6.50
2019-02-17T00:45:23.881Z,6.50
2019-02-17T00:46:23.872Z,6.50
2019-02-17T00:47:23.862Z,5.90
2019-02-17T00:48:23.852Z,6.40
2019-02-17T00:49:23.857Z,5.90
2019-02-17T00:50:23.830Z,6.00
2019-02-17T00:51:23.830Z,6.10
2019-02-17T00:52:23.824Z,6.70
2019-02-17T00:53:23.795Z,6.00
2019-02-17T00:54:24.324Z,5.70
2019-02-17T00:55:25.325Z,6.20
2019-02-17T00:56:23.767Z,6.00
2019-02-17T00:57:23.797Z,6.40
2019-02-17T00:58:23.763Z,6.50
2019-02-17T00:59:23.749Z,6.40
2019-02-17T01:00:23.733Z,6.30
2019-02-17T01:01:23.723Z,6.00
2019-02-17T01:02:23.700Z,6.40
2019-02-17T01:03:23.689Z,6.20
2019-02-17T01:04:23.728Z,6.70
2019-02-17T01:05:23.687Z,6.00
2019-02-17T01:06:23.656Z,6.80
2019-02-17T01:07:23.653Z,6.50
2019-02-17T01:08:23.654Z,6.80
2019-02-17T01:09:23.645Z,6.50
2019-02-17T01:10:23.624Z,6.40
2019-02-17T01:11:23.615Z,6.40
2019-02-17T01:12:23.590Z,7.00
2019-02-17T01:13:23.601Z,6.70
2019-02-17T01:14:23.603Z,6.80
2019-02-17T01:15:23.567Z,6.60
2019-02-17T01:16:25.060Z,6.70
2019-02-17T01:17:23.539Z,6.50
2019-02-17T01:18:23.528Z,6.50
2019-02-17T01:19:23.533Z,6.00
2019-02-17T01:20:23.520Z,5.40
2019-02-17T01:21:23.503Z,6.30
2019-02-17T01:22:23.580Z,6.20
2019-02-17T01:23:23.493Z,6.30
2019-02-17T01:24:23.478Z,6.30
2019-02-17T01:25:23.464Z,6.10
2019-02-17T01:26:23.448Z,6.10
2019-02-17T01:27:23.433Z,6.30
2019-02-17T01:28:23.480Z,6.50
2019-02-17T01:29:23.416Z,6.30
2019-02-17T01:30:23.441Z,6.40
2019-02-17T01:31:23.423Z,6.20
2019-02-17T01:32:23.369Z,6.50
2019-02-17T01:33:23.360Z,6.10
2019-02-17T01:34:23.367Z,6.50
2019-02-17T01:35:23.348Z,6.30
2019-02-17T01:36:23.443Z,6.40
2019-02-17T01:37:23.334Z,6.10
2019-02-17T01:38:23.316Z,6.60
2019-02-17T01:39:23.326Z,6.20
2019-02-17T01:40:23.299Z,6.10
2019-02-17T01:41:23.285Z,5.90
2019-02-17T01:42:23.279Z,6.30
2019-02-17T01:43:23.266Z,6.20
2019-02-17T01:44:23.274Z,5.80
2019-02-17T01:45:24.520Z,6.50
2019-02-17T01:46:23.317Z,6.00
2019-02-17T01:47:23.243Z,6.10
2019-02-17T01:48:23.211Z,6.30
2019-02-17T01:49:23.207Z,6.20
2019-02-17T01:50:23.192Z,5.80
2019-02-17T01:51:23.170Z,6.10
2019-02-17T01:52:23.177Z,6.30
2019-02-17T01:53:23.185Z,6.00
2019-02-17T01:54:23.152Z,5.80
2019-02-17T01:55:23.138Z,5.80
2019-02-17T01:56:23.116Z,6.00
2019-02-17T01:57:23.115Z,6.00
2019-02-17T01:58:23.122Z,5.70
2019-02-17T01:59:30.343Z,6.20
2019-02-17T02:00:23.080Z,5.90
2019-02-17T02:01:23.065Z,6.30
2019-02-17T02:02:23.066Z,5.90
2019-02-17T02:03:23.052Z,6.20
2019-02-17T02:04:23.100Z,6.40
2019-02-17T02:05:23.023Z,5.70
2019-02-17T02:06:23.008Z,6.30
2019-02-17T02:07:23.012Z,6.30
2019-02-17T02:08:22.992Z,5.70
2019-02-17T02:09:23.000Z,5.70
2019-02-17T02:10:22.974Z,6.10
2019-02-17T02:11:22.991Z,6.20
2019-02-17T02:12:22.943Z,5.90
2019-02-17T02:13:22.939Z,5.90
2019-02-17T02:14:23.028Z,6.10
2019-02-17T02:15:22.919Z,6.20
2019-02-17T02:16:22.916Z,5.60
2019-02-17T02:17:22.890Z,5.70
2019-02-17T02:18:22.892Z,5.90
2019-02-17T02:19:22.868Z,5.40
2019-02-17T02:20:22.876Z,5.90
2019-02-17T02:21:22.855Z,5.50
2019-02-17T02:22:22.858Z,5.60
2019-02-17T02:23:22.826Z,5.90
2019-02-17T02:24:22.819Z,5.70
2019-02-17T02:25:22.836Z,5.80
2019-02-17T02:26:22.794Z,5.50
2019-02-17T02:27:22.787Z,5.60
2019-02-17T02:28:22.787Z,5.70
2019-02-17T02:29:22.775Z,5.70
2019-02-17T02:30:22.779Z,5.80
2019-02-17T02:31:22.751Z,5.30
2019-02-17T02:32:22.747Z,5.70
2019-02-17T02:33:22.729Z,5.70
2019-02-17T02:34:22.717Z,4.90
2019-02-17T02:35:22.716Z,5.80
2019-02-17T02:36:22.723Z,5.40
2019-02-17T02:37:22.717Z,5.50
2019-02-17T02:38:22.668Z,5.30
2019-02-17T02:39:22.684Z,5.40
2019-02-17T02:40:22.660Z,6.30
2019-02-17T02:41:33.888Z,5.30
2019-02-17T02:42:22.639Z,5.80
2019-02-17T02:43:22.610Z,5.60
2019-02-17T02:44:22.605Z,5.80
2019-02-17T02:45:22.638Z,5.30
2019-02-17T02:46:22.588Z,5.40
2019-02-17T02:47:22.572Z,5.60
2019-02-17T02:48:22.573Z,5.20
2019-02-17T02:49:22.546Z,5.50
2019-02-17T02:50:22.720Z,5.70
2019-02-17T02:51:22.555Z,5.70
2019-02-17T02:52:22.523Z,5.60
2019-02-17T02:53:22.516Z,5.50
2019-02-17T02:54:22.498Z,5.50
2019-02-17T02:55:22.497Z,5.30
2019-02-17T02:56:22.484Z,5.20
2019-02-17T02:57:22.484Z,6.20
2019-02-17T02:58:22.465Z,5.50
2019-02-17T02:59:22.444Z,5.90
2019-02-17T03:00:22.444Z,5.90
2019-02-17T03:01:22.422Z,5.60
2019-02-17T03:02:22.420Z,5.50
2019-02-17T03:03:22.397Z,6.00
2019-02-17T03:04:22.387Z,5.70
2019-02-17T03:05:22.392Z,5.00
2019-02-17T03:06:22.419Z,5.70
2019-02-17T03:07:22.367Z,5.60
2019-02-17T03:08:22.352Z,5.90
2019-02-17T03:09:22.364Z,5.80
2019-02-17T03:10:22.334Z,5.60
2019-02-17T03:11:22.316Z,5.90
2019-02-17T03:12:22.305Z,5.60
2019-02-17T03:13:22.293Z,5.40
2019-02-17T03:14:22.294Z,5.50
2019-02-17T03:15:22.288Z,5.70
2019-02-17T03:16:22.264Z,5.40
2019-02-17T03:17:22.254Z,5.40
2019-02-17T03:18:22.250Z,5.70
2019-02-17T03:19:22.263Z,5.90
2019-02-17T03:20:22.239Z,6.00
2019-02-17T03:21:22.226Z,5.40
2019-02-17T03:22:22.195Z,5.80
2019-02-17T03:23:22.200Z,5.60
2019-02-17T03:24:22.179Z,5.80
2019-02-17T03:25:22.178Z,5.30
2019-02-17T03:26:22.170Z,5.90
2019-02-17T03:27:22.168Z,5.60
2019-02-17T03:28:22.131Z,5.10
2019-02-17T03:29:22.160Z,5.30
2019-02-17T03:30:22.132Z,5.40
2019-02-17T03:31:22.104Z,5.40
2019-02-17T03:32:22.112Z,6.00
2019-02-17T03:33:22.088Z,6.10
2019-02-17T03:34:22.088Z,5.40
2019-02-17T03:35:22.068Z,5.60
2019-02-17T03:36:22.127Z,5.80
2019-02-17T03:37:22.051Z,5.50
2019-02-17T03:38:22.030Z,5.70
2019-02-17T03:39:22.023Z,5.10
2019-02-17T03:40:22.014Z,5.50
2019-02-17T03:41:21.993Z,5.80
2019-02-17T03:42:21.988Z,6.20
2019-02-17T03:43:21.966Z,5.50
2019-02-17T03:44:21.993Z,5.20
2019-02-17T03:45:21.961Z,4.80
2019-02-17T03:46:21.946Z,5.90
2019-02-17T03:47:21.928Z,5.50
2019-02-17T03:48:21.926Z,5.60
2019-02-17T03:49:21.904Z,5.20
2019-02-17T03:50:21.957Z,6.00
2019-02-17T03:51:22.050Z,5.90
2019-02-17T03:52:21.876Z,5.20
2019-02-17T03:53:21.872Z,5.20
2019-02-17T03:54:21.854Z,5.50
2019-02-17T03:55:21.860Z,5.30
2019-02-17T03:56:21.845Z,5.70
2019-02-17T03:57:21.832Z,5.40
2019-02-17T03:58:21.889Z,6.00
2019-02-17T03:59:21.816Z,6.10
2019-02-17T04:00:22.061Z,5.40
2019-02-17T04:01:21.795Z,5.50
2019-02-17T04:02:21.781Z,5.50
2019-02-17T04:03:21.774Z,5.20
2019-02-17T04:04:21.753Z,5.50
2019-02-17T04:05:21.758Z,5.50
2019-02-17T04:06:21.739Z,5.70
2019-02-17T04:07:21.716Z,5.40
2019-02-17T04:08:21.709Z,5.30
2019-02-17T04:09:21.737Z,5.50
2019-02-17T04:10:21.680Z,5.70
2019-02-17T04:11:21.685Z,6.00
2019-02-17T04:12:21.723Z,5.50
2019-02-17T04:13:21.643Z,5.30
2019-02-17T04:14:21.660Z,5.60
2019-02-17T04:15:21.635Z,5.60
2019-02-17T04:16:21.713Z,4.90
2019-02-17T04:17:21.615Z,5.30
2019-02-17T04:18:21.605Z,5.60
2019-02-17T04:19:21.589Z,5.40
2019-02-17T04:20:21.574Z,5.40
2019-02-17T04:21:21.578Z,5.10
2019-02-17T04:22:21.621Z,5.50
2019-02-17T04:23:30.961Z,5.10
2019-02-17T04:24:21.546Z,5.60
2019-02-17T04:25:21.527Z,5.70
2019-02-17T04:26:21.529Z,5.60
2019-02-17T04:27:21.526Z,5.10
2019-02-17T04:28:21.485Z,5.30
2019-02-17T04:29:21.494Z,5.70
2019-02-17T04:30:29.372Z,5.20
2019-02-17T04:31:21.615Z,5.40
2019-02-17T04:32:21.458Z,5.30
2019-02-17T04:33:21.449Z,4.90
2019-02-17T04:34:21.428Z,5.00
2019-02-17T04:35:21.415Z,5.10
2019-02-17T04:36:21.420Z,5.50
2019-02-17T04:37:21.422Z,5.20
2019-02-17T04:38:21.401Z,5.20
2019-02-17T04:39:21.374Z,4.90
2019-02-17T04:40:21.392Z,5.70
2019-02-17T04:41:21.364Z,5.20
2019-02-17T04:42:21.346Z,5.30
2019-02-17T04:43:21.334Z,5.20
2019-02-17T04:44:21.334Z,5.50
2019-02-17T04:45:21.383Z,5.00
2019-02-17T04:46:21.308Z,5.20
2019-02-17T04:47:21.287Z,5.80
2019-02-17T04:48:21.279Z,5.30
2019-02-17T04:49:21.264Z,5.60
2019-02-17T04:50:21.273Z,5.20
2019-02-17T04:51:21.264Z,5.50
2019-02-17T04:52:21.231Z,5.20
2019-02-17T04:53:21.233Z,5.40
2019-02-17T04:54:21.234Z,5.10
2019-02-17T04:55:21.215Z,5.00
2019-02-17T04:56:21.213Z,5.50
2019-02-17T04:57:21.374Z,4.70
2019-02-17T04:58:21.169Z,5.20
2019-02-17T04:59:21.226Z,5.00
2019-02-17T05:00:21.153Z,5.10
2019-02-17T05:01:21.164Z,5.40
2019-02-17T05:02:21.127Z,5.30
2019-02-17T05:03:21.121Z,5.30
2019-02-17T05:04:21.102Z,5.20
2019-02-17T05:05:21.116Z,5.00
2019-02-17T05:06:21.101Z,5.60
2019-02-17T05:07:21.094Z,5.70
2019-02-17T05:08:21.084Z,5.50
2019-02-17T05:09:21.069Z,5.20
2019-02-17T05:10:21.058Z,5.60
2019-02-17T05:11:21.053Z,5.70
2019-02-17T05:12:21.030Z,5.40
2019-02-17T05:13:21.020Z,5.10
2019-02-17T05:14:21.011Z,5.10
2019-02-17T05:15:20.991Z,5.30
2019-02-17T05:16:20.987Z,5.20
2019-02-17T05:17:20.976Z,5.00
2019-02-17T05:18:20.962Z,5.00
2019-02-17T05:19:20.964Z,5.40
2019-02-17T05:20:20.946Z,5.10
2019-02-17T05:21:20.920Z,5.30
2019-02-17T05:22:20.939Z,5.20
2019-02-17T05:23:20.903Z,5.50
2019-02-17T05:24:20.885Z,5.30
2019-02-17T05:25:20.891Z,5.00
2019-02-17T05:26:20.879Z,4.80
2019-02-17T05:27:20.875Z,5.30
2019-02-17T05:28:20.851Z,5.50
2019-02-17T05:29:20.837Z,5.00
2019-02-17T05:30:20.825Z,5.20
2019-02-17T05:31:20.866Z,5.70
2019-02-17T05:32:20.831Z,5.40
2019-02-17T05:33:20.792Z,5.60
2019-02-17T05:34:20.782Z,5.60
2019-02-17T05:35:20.777Z,5.30
2019-02-17T05:36:20.768Z,5.20
2019-02-17T05:37:20.807Z,5.20
2019-02-17T05:38:20.776Z,5.60
2019-02-17T05:39:20.738Z,4.90
2019-02-17T05:40:20.723Z,5.40
2019-02-17T05:41:20.716Z,5.40
2019-02-17T05:42:20.812Z,5.30
2019-02-17T05:43:20.697Z,5.40
2019-02-17T05:44:20.728Z,5.20
2019-02-17T05:45:20.903Z,5.00
2019-02-17T05:46:20.658Z,5.60
2019-02-17T05:47:20.663Z,5.10
2019-02-17T05:48:20.639Z,5.40
2019-02-17T05:49:20.628Z,4.90
2019-02-17T05:50:20.614Z,5.40
2019-02-17T05:51:20.609Z,5.00
2019-02-17T05:52:20.624Z,5.00
2019-02-17T05:53:20.585Z,5.10
2019-02-17T05:54:20.586Z,5.50
2019-02-17T05:55:20.563Z,5.00
2019-02-17T05:56:20.552Z,5.30
2019-02-17T05:57:20.552Z,5.10
2019-02-17T05:58:20.544Z,5.20
2019-02-17T05:59:20.517Z,5.70
2019-02-17T06:00:20.525Z,5.30
2019-02-17T06:01:20.512Z,5.50
2019-02-17T06:02:20.499Z,5.60
2019-02-17T06:03:20.486Z,5.20
2019-02-17T06:04:20.462Z,5.40
2019-02-17T06:05:20.535Z,5.00
2019-02-17T06:06:20.436Z,5.40
2019-02-17T06:07:20.449Z,5.10
2019-02-17T06:08:20.426Z,5.60
2019-02-17T06:09:20.411Z,5.30
2019-02-17T06:10:20.406Z,5.20
2019-02-17T06:11:20.403Z,4.90
2019-02-17T06:12:20.402Z,5.20
2019-02-17T06:13:20.445Z,5.40
2019-02-17T06:14:20.374Z,5.10
2019-02-17T06:15:20.397Z,5.50
2019-02-17T06:16:20.333Z,5.50
2019-02-17T06:17:20.338Z,5.80
2019-02-17T06:18:20.311Z,5.40
2019-02-17T06:19:20.315Z,5.50
2019-02-17T06:20:20.297Z,5.20
2019-02-17T06:21:20.304Z,5.20
2019-02-17T06:22:20.287Z,5.20
2019-02-17T06:23:20.269Z,5.20
2019-02-17T06:24:20.261Z,5.10
2019-02-17T06:25:20.298Z,5.10
2019-02-17T06:26:20.284Z,5.10
2019-02-17T06:27:20.236Z,5.10
2019-02-17T06:28:20.328Z,5.00
2019-02-17T06:29:20.250Z,5.20
2019-02-17T06:30:20.186Z,5.30
2019-02-17T06:31:20.187Z,5.60
2019-02-17T06:32:20.202Z,5.50
2019-02-17T06:33:20.194Z,5.40
2019-02-17T06:34:20.145Z,5.40
2019-02-17T06:35:20.760Z,5.30
2019-02-17T06:36:20.123Z,5.30
2019-02-17T06:37:20.130Z,5.20
2019-02-17T06:38:20.105Z,5.70
2019-02-17T06:39:20.085Z,5.50
2019-02-17T06:40:20.086Z,5.30
2019-02-17T06:41:20.079Z,5.40
2019-02-17T06:42:20.082Z,5.20
2019-02-17T06:43:20.064Z,5.50
2019-02-17T06:44:20.052Z,5.60
2019-02-17T06:45:20.031Z,5.10
2019-02-17T06:46:20.017Z,4.70
2019-02-17T06:47:20.037Z,5.10
2019-02-17T06:48:20.009Z,5.30
2019-02-17T06:49:19.992Z,5.10
2019-02-17T06:50:19.969Z,5.10
2019-02-17T06:51:19.969Z,5.70
2019-02-17T06:52:19.985Z,5.50
2019-02-17T06:53:19.938Z,5.50
2019-02-17T06:54:19.934Z,5.40
2019-02-17T06:55:19.939Z,5.50
2019-02-17T06:56:19.920Z,5.90
2019-02-17T06:57:19.901Z,5.30
2019-02-17T06:58:19.918Z,5.30
2019-02-17T06:59:19.892Z,5.30
2019-02-17T07:00:19.876Z,5.40
2019-02-17T07:01:24.683Z,5.40
2019-02-17T07:02:19.849Z,5.50
2019-02-17T07:03:19.863Z,5.50
2019-02-17T07:04:19.863Z,5.70
2019-02-17T07:05:19.822Z,5.50
2019-02-17T07:06:19.820Z,5.20
2019-02-17T07:07:19.827Z,5.30
2019-02-17T07:08:19.804Z,5.30
2019-02-17T07:09:19.775Z,5.40
2019-02-17T07:10:19.754Z,5.60
2019-02-17T07:11:19.819Z,5.00
2019-02-17T07:12:19.730Z,5.50
2019-02-17T07:13:19.762Z,5.20
2019-02-17T07:14:19.722Z,5.30
2019-02-17T07:15:19.710Z,5.80
2019-02-17T07:16:19.714Z,5.40
2019-02-17T07:17:19.692Z,5.40
2019-02-17T07:18:19.709Z,5.40
2019-02-17T07:19:19.662Z,5.60
2019-02-17T07:20:19.649Z,5.10
2019-02-17T07:21:19.656Z,5.30
2019-02-17T07:22:19.647Z,5.50
2019-02-17T07:23:19.635Z,5.70
2019-02-17T07:24:19.618Z,5.80
2019-02-17T07:25:29.652Z,5.70
2019-02-17T07:26:19.580Z,5.40
2019-02-17T07:27:19.593Z,5.40
2019-02-17T07:28:19.608Z,5.40
2019-02-17T07:29:32.632Z,5.40
2019-02-17T07:30:19.557Z,6.00
2019-02-17T07:31:19.588Z,5.20
2019-02-17T07:32:19.542Z,5.20
2019-02-17T07:33:19.536Z,5.40
2019-02-17T07:34:19.509Z,5.40
2019-02-17T07:35:19.504Z,4.90
2019-02-17T07:36:21.864Z,5.60
2019-02-17T07:37:19.511Z,5.40
2019-02-17T07:38:19.484Z,5.40
2019-02-17T07:39:19.469Z,5.20
2019-02-17T07:40:19.469Z,5.20
2019-02-17T07:41:19.422Z,5.50
2019-02-17T07:42:19.426Z,5.40
2019-02-17T07:43:19.415Z,5.10
2019-02-17T07:44:19.397Z,5.50
2019-02-17T07:45:19.437Z,5.20
2019-02-17T07:46:19.377Z,5.60
2019-02-17T07:47:19.355Z,5.70
2019-02-17T07:48:19.392Z,5.00
2019-02-17T07:49:19.338Z,5.50
2019-02-17T07:50:19.345Z,5.20
2019-02-17T07:51:19.319Z,5.50
2019-02-17T07:52:19.321Z,5.70
2019-02-17T07:53:19.358Z,5.40
2019-02-17T07:54:19.291Z,5.80
2019-02-17T07:55:19.303Z,5.90
2019-02-17T07:56:19.269Z,5.50
2019-02-17T07:57:19.250Z,5.70
2019-02-17T07:58:19.296Z,5.80
2019-02-17T07:59:19.249Z,5.60
2019-02-17T08:00:19.237Z,5.40
2019-02-17T08:01:19.229Z,5.30
2019-02-17T08:02:19.197Z,5.60
2019-02-17T08:03:19.221Z,5.70
2019-02-17T08:04:19.187Z,5.50
2019-02-17T08:05:19.171Z,5.60
2019-02-17T08:06:19.163Z,5.40
2019-02-17T08:07:19.152Z,5.70
2019-02-17T08:08:19.663Z,5.80
2019-02-17T08:09:19.158Z,5.50
2019-02-17T08:10:19.118Z,5.90
2019-02-17T08:11:19.119Z,5.30
2019-02-17T08:12:19.121Z,5.20
2019-02-17T08:13:19.088Z,5.40
2019-02-17T08:14:19.071Z,5.50
2019-02-17T08:15:19.072Z,5.80
2019-02-17T08:16:19.055Z,5.30
2019-02-17T08:17:19.072Z,5.70
2019-02-17T08:18:19.432Z,5.60
2019-02-17T08:19:19.011Z,5.70
2019-02-17T08:20:19.009Z,6.00
2019-02-17T08:21:18.991Z,5.60
2019-02-17T08:22:18.988Z,5.50
2019-02-17T08:23:18.996Z,5.80
2019-02-17T08:24:18.981Z,5.70
2019-02-17T08:25:21.761Z,5.40
2019-02-17T08:26:18.955Z,5.90
2019-02-17T08:27:18.965Z,5.70
2019-02-17T08:28:18.939Z,5.80
2019-02-17T08:29:18.956Z,5.80
2019-02-17T08:30:18.906Z,5.50
2019-02-17T08:31:18.894Z,5.40
2019-02-17T08:32:18.921Z,5.60
2019-02-17T08:33:18.873Z,5.60
2019-02-17T08:34:18.891Z,5.10
2019-02-17T08:35:18.851Z,5.10
2019-02-17T08:36:18.870Z,5.00
2019-02-17T08:37:18.822Z,5.60
2019-02-17T08:38:18.820Z,5.60
2019-02-17T08:39:18.826Z,5.20
2019-02-17T08:40:18.816Z,5.20
2019-02-17T08:41:18.782Z,5.10
2019-02-17T08:42:18.790Z,5.50
2019-02-17T08:43:18.828Z,5.50
2019-02-17T08:44:18.795Z,5.90
2019-02-17T08:45:18.751Z,5.30
2019-02-17T08:46:18.739Z,5.20
2019-02-17T08:47:18.724Z,5.30
2019-02-17T08:48:18.714Z,5.40
2019-02-17T08:49:18.719Z,5.70
2019-02-17T08:50:20.006Z,5.60
2019-02-17T08:51:18.711Z,5.40
2019-02-17T08:52:18.662Z,5.60
2019-02-17T08:53:18.666Z,4.90
2019-02-17T08:54:18.675Z,5.60
2019-02-17T08:55:18.637Z,5.60
2019-02-17T08:56:19.149Z,5.60
2019-02-17T08:57:18.616Z,5.50
2019-02-17T08:58:18.596Z,5.60
2019-02-17T08:59:18.617Z,5.80
2019-02-17T09:00:18.591Z,6.10
2019-02-17T09:01:18.615Z,5.50
2019-02-17T09:02:18.556Z,5.50
2019-02-17T09:03:18.555Z,5.70
2019-02-17T09:04:18.540Z,5.70
2019-02-17T09:05:18.552Z,5.50
2019-02-17T09:06:18.512Z,5.60
2019-02-17T09:07:18.504Z,5.50
2019-02-17T09:08:18.495Z,5.80
2019-02-17T09:09:19.153Z,5.30
2019-02-17T09:10:18.478Z,5.60
2019-02-17T09:11:18.485Z,5.40
2019-02-17T09:12:18.503Z,5.40
2019-02-17T09:13:18.673Z,5.40
2019-02-17T09:14:18.431Z,5.80
2019-02-17T09:15:18.431Z,5.50
2019-02-17T09:16:18.407Z,5.50
2019-02-17T09:17:18.404Z,5.50
2019-02-17T09:18:18.389Z,5.90
2019-02-17T09:19:18.382Z,5.90
2019-02-17T09:20:18.368Z,5.50
2019-02-17T09:21:18.369Z,5.60
2019-02-17T09:22:18.365Z,5.50
2019-02-17T09:23:18.333Z,5.00
2019-02-17T09:24:18.327Z,5.50
2019-02-17T09:25:18.338Z,5.60
2019-02-17T09:26:18.301Z,5.40
2019-02-17T09:27:18.297Z,5.20
2019-02-17T09:28:18.283Z,5.00
2019-02-17T09:29:18.276Z,5.20
2019-02-17T09:30:18.282Z,5.60
2019-02-17T09:31:18.252Z,5.30
2019-02-17T09:32:18.230Z,5.20
2019-02-17T09:33:18.226Z,5.10
2019-02-17T09:34:18.225Z,5.20
2019-02-17T09:35:18.222Z,5.30
2019-02-17T09:36:18.197Z,5.30
2019-02-17T09:37:18.185Z,5.20
2019-02-17T09:38:18.684Z,4.80
2019-02-17T09:39:18.153Z,4.80
2019-02-17T09:40:18.160Z,5.00
2019-02-17T09:41:18.143Z,5.40
2019-02-17T09:42:18.125Z,5.10
2019-02-17T09:43:18.108Z,5.10
2019-02-17T09:44:18.102Z,5.50
2019-02-17T09:45:18.136Z,5.20
2019-02-17T09:46:18.088Z,5.00
2019-02-17T09:47:18.071Z,4.80
2019-02-17T09:48:18.084Z,5.40
2019-02-17T09:49:18.053Z,4.90
2019-02-17T09:50:18.052Z,4.90
2019-02-17T09:51:18.066Z,5.40
2019-02-17T09:52:18.026Z,5.30
2019-02-17T09:53:17.994Z,5.20
2019-02-17T09:54:17.989Z,4.70
2019-02-17T09:55:17.975Z,5.30
2019-02-17T09:56:17.983Z,5.10
2019-02-17T09:57:17.956Z,5.30
2019-02-17T09:58:17.958Z,5.30
2019-02-17T09:59:17.941Z,5.20
2019-02-17T10:00:18.604Z,5.10
2019-02-17T10:01:17.917Z,5.00
2019-02-17T10:02:26.277Z,5.20
2019-02-17T10:03:17.909Z,5.30
2019-02-17T10:04:17.919Z,5.30
2019-02-17T10:05:17.872Z,5.00
2019-02-17T10:06:18.233Z,5.00
2019-02-17T10:07:17.845Z,4.90
2019-02-17T10:08:17.843Z,5.00
2019-02-17T10:09:17.867Z,4.70
2019-02-17T10:10:17.824Z,4.70
2019-02-17T10:11:17.807Z,4.70
2019-02-17T10:12:17.884Z,5.00
2019-02-17T10:13:17.784Z,5.50
2019-02-17T10:14:17.771Z,5.00
2019-02-17T10:15:17.768Z,5.20
2019-02-17T10:16:17.759Z,5.00
2019-02-17T10:17:17.748Z,4.90
2019-02-17T10:18:17.738Z,4.70
2019-02-17T10:19:17.732Z,4.80
2019-02-17T10:20:17.722Z,5.00
2019-02-17T10:21:17.697Z,5.40
2019-02-17T10:22:17.692Z,4.90
2019-02-17T10:23:17.694Z,5.10
2019-02-17T10:24:17.666Z,4.90
2019-02-17T10:25:17.660Z,5.00
2019-02-17T10:26:17.654Z,5.10
2019-02-17T10:27:17.669Z,5.30
2019-02-17T10:28:17.624Z,5.10
2019-02-17T10:29:17.626Z,4.80
2019-02-17T10:30:17.605Z,4.90
2019-02-17T10:31:17.580Z,4.60
2019-02-17T10:32:17.584Z,4.80
2019-02-17T10:33:17.585Z,4.90
2019-02-17T10:34:17.555Z,4.70
2019-02-17T10:35:17.546Z,4.70
2019-02-17T10:36:17.577Z,5.20
2019-02-17T10:37:17.558Z,5.10
2019-02-17T10:38:17.578Z,5.00
2019-02-17T10:39:17.508Z,4.80
2019-02-17T10:40:17.505Z,4.90
2019-02-17T10:41:17.472Z,4.50
2019-02-17T10:42:17.487Z,5.40
2019-02-17T10:43:17.459Z,4.60
2019-02-17T10:44:17.448Z,4.80
2019-02-17T10:45:17.430Z,4.60
2019-02-17T10:46:17.432Z,4.60
2019-02-17T10:47:17.439Z,5.20
2019-02-17T10:48:17.469Z,4.80
2019-02-17T10:49:19.341Z,4.50
2019-02-17T10:50:17.380Z,4.30
2019-02-17T10:51:17.379Z,4.40
2019-02-17T10:52:17.421Z,4.90
2019-02-17T10:53:17.427Z,4.80
2019-02-17T10:54:17.339Z,4.30
2019-02-17T10:55:17.381Z,4.90
2019-02-17T10:56:17.321Z,4.80
2019-02-17T10:57:17.374Z,4.90
2019-02-17T10:58:17.345Z,4.50
2019-02-17T10:59:17.282Z,4.90
2019-02-17T11:00:17.276Z,4.40
2019-02-17T11:01:20.862Z,4.30
2019-02-17T11:02:18.151Z,4.80
2019-02-17T11:03:17.249Z,4.40
2019-02-17T11:04:17.226Z,4.40
2019-02-17T11:05:17.222Z,4.50
2019-02-17T11:06:17.225Z,4.80
2019-02-17T11:07:17.205Z,4.70
2019-02-17T11:08:17.273Z,4.90
2019-02-17T11:09:17.174Z,4.70
2019-02-17T11:10:17.192Z,4.70
2019-02-17T11:11:17.154Z,4.50
2019-02-17T11:12:17.137Z,4.40
2019-02-17T11:13:17.151Z,5.00
2019-02-17T11:14:17.137Z,4.60
2019-02-17T11:15:17.120Z,4.60
2019-02-17T11:16:17.110Z,4.50
2019-02-17T11:17:17.109Z,4.80
2019-02-17T11:18:17.093Z,4.40
2019-02-17T11:19:17.100Z,4.90
2019-02-17T11:20:17.069Z,4.70
2019-02-17T11:21:17.054Z,4.50
2019-02-17T11:22:23.116Z,4.50
2019-02-17T11:23:17.037Z,4.60
2019-02-17T11:24:17.026Z,4.80
2019-02-17T11:25:17.016Z,4.70
2019-02-17T11:26:16.995Z,4.30
2019-02-17T11:27:17.005Z,4.40
2019-02-17T11:28:16.978Z,4.60
2019-02-17T11:29:16.959Z,4.70
2019-02-17T11:30:16.938Z,4.50
2019-02-17T11:31:16.939Z,4.50
2019-02-17T11:32:16.934Z,4.70
2019-02-17T11:33:16.914Z,4.40
2019-02-17T11:34:16.964Z,4.70
2019-02-17T11:35:16.948Z,4.00
2019-02-17T11:36:16.893Z,4.80
2019-02-17T11:37:16.875Z,4.60
2019-02-17T11:38:20.242Z,4.80
2019-02-17T11:39:16.867Z,4.60
2019-02-17T11:40:16.850Z,5.10
2019-02-17T11:41:16.825Z,4.20
2019-02-17T11:42:16.813Z,4.50
2019-02-17T11:43:16.812Z,4.30
2019-02-17T11:44:16.817Z,4.30
2019-02-17T11:45:16.788Z,4.50
2019-02-17T11:46:16.808Z,4.20
2019-02-17T11:47:16.771Z,4.20
2019-02-17T11:48:16.760Z,4.40
2019-02-17T11:49:16.774Z,4.40
2019-02-17T11:50:16.752Z,4.80
2019-02-17T11:51:16.718Z,4.30
2019-02-17T11:52:16.733Z,4.20
2019-02-17T11:53:16.699Z,4.40
2019-02-17T11:54:16.709Z,4.30
2019-02-17T11:55:16.690Z,4.40
2019-02-17T11:56:16.681Z,4.40
2019-02-17T11:57:16.684Z,4.10
2019-02-17T11:58:16.678Z,4.30
2019-02-17T11:59:18.203Z,3.70
2019-02-17T12:00:16.623Z,4.40
2019-02-17T12:01:16.631Z,4.50
2019-02-17T12:02:24.648Z,4.50
2019-02-17T12:03:16.610Z,4.00
2019-02-17T12:04:16.593Z,4.20
2019-02-17T12:05:16.591Z,4.20
2019-02-17T12:06:16.560Z,4.50
2019-02-17T12:07:16.546Z,4.40
2019-02-17T12:08:16.539Z,4.10
2019-02-17T12:09:16.562Z,3.80
2019-02-17T12:10:16.512Z,3.90
2019-02-17T12:11:16.501Z,4.20
2019-02-17T12:12:16.533Z,4.20
2019-02-17T12:13:16.499Z,4.70
2019-02-17T12:14:16.487Z,4.00
2019-02-17T12:15:16.459Z,4.30
2019-02-17T12:16:16.459Z,3.80
2019-02-17T12:17:16.449Z,4.10
2019-02-17T12:18:16.463Z,3.90
2019-02-17T12:19:16.447Z,4.30
2019-02-17T12:20:16.451Z,4.20
2019-02-17T12:21:16.400Z,4.20
2019-02-17T12:22:16.412Z,4.30
2019-02-17T12:23:16.377Z,4.40
2019-02-17T12:24:16.480Z,4.20
2019-02-17T12:25:16.372Z,4.10
2019-02-17T12:26:16.353Z,4.70
2019-02-17T12:27:16.333Z,4.30
2019-02-17T12:28:16.326Z,3.80
2019-02-17T12:29:16.336Z,4.10
2019-02-17T12:30:16.300Z,4.20
2019-02-17T12:31:16.313Z,3.90
2019-02-17T12:32:16.279Z,4.30
2019-02-17T12:33:20.564Z,4.10
2019-02-17T12:34:16.337Z,4.10
2019-02-17T12:35:16.260Z,4.00
2019-02-17T12:36:16.257Z,4.10
2019-02-17T12:37:16.232Z,4.10
2019-02-17T12:38:16.209Z,4.00
2019-02-17T12:39:16.230Z,3.90
2019-02-17T12:40:16.190Z,3.90
2019-02-17T12:41:16.190Z,4.50
2019-02-17T12:42:16.173Z,3.80
2019-02-17T12:43:16.183Z,3.70
2019-02-17T12:44:16.161Z,4.00
2019-02-17T12:45:18.223Z,4.00
2019-02-17T12:46:16.171Z,4.40
2019-02-17T12:47:16.116Z,4.20
2019-02-17T12:48:16.118Z,4.00
2019-02-17T12:49:16.155Z,3.80
2019-02-17T12:50:17.003Z,3.50
2019-02-17T12:51:16.115Z,4.30
2019-02-17T12:52:16.076Z,3.80
2019-02-17T12:53:16.068Z,3.60
2019-02-17T12:54:16.126Z,4.00
2019-02-17T12:55:16.061Z,3.90
2019-02-17T12:56:16.042Z,3.90
2019-02-17T12:57:16.034Z,4.00
2019-02-17T12:58:16.034Z,4.10
2019-02-17T12:59:16.022Z,3.90
2019-02-17T13:00:18.309Z,3.30
2019-02-17T13:01:15.966Z,3.80
2019-02-17T13:02:16.328Z,3.80
2019-02-17T13:03:15.956Z,3.80
2019-02-17T13:04:15.957Z,3.70
2019-02-17T13:05:15.927Z,3.40
2019-02-17T13:06:15.926Z,3.70
2019-02-17T13:07:15.905Z,3.30
2019-02-17T13:08:15.893Z,3.90
2019-02-17T13:09:15.912Z,3.90
2019-02-17T13:10:15.911Z,3.70
2019-02-17T13:11:15.866Z,3.60
2019-02-17T13:12:15.875Z,3.80
2019-02-17T13:13:15.838Z,3.60
2019-02-17T13:14:15.840Z,4.00
2019-02-17T13:15:15.835Z,3.60
2019-02-17T13:16:15.813Z,3.70
2019-02-17T13:17:15.797Z,3.60
2019-02-17T13:18:16.048Z,4.10